Reservoir, Mississippi
Current Conditions -  °F | °C
As of 5:54 PM on Friday 28 Nov 2014 (Local Time) from KJAN Reporting Station
Clear Clear  
Wind Chill:   Ceiling: Unl
Heat Index:   Visibility: 10mi
Dew Point: -2°   Wind: 6mph
Humidity: 48%   Direction: 140°SE
Pressure: 30.24"   Gusts: NA
Location:  32.2729°N, 89.9857°W
Report Text: KJAN 282354Z 14005KT 10SM CLR 09/M02 A3024 RMK AO2 SLP241 T00891017 10156 20078 56008
Loading
Personal Weather Stations






























Interactive Weather Map New forecast layout! Learn more

10-Day Weather Forecast

Advertisements
Track Severe Weather on mobile